FDX9011 LPFR-EDDK
Flight info
| Callsign | FDX9011 |
|---|---|
| Flight time | N/A |
| Altitude | 31000 |
| Route | TUPIX1V TUPIX Y135 NAPES/N0482F340 N747 PIMUR/N0481F380 DCT OXACA N858 DIONY/N0485F400 N858 DGO L176 LUSEM DCT LULUT DCT ADABI DCT BOKNO DCT DIBES DCT VIQAQ DCT TSU UN858 OQQAL DCT RANUX/N0488F410 DCT VALEK DCT LUTAX UM163 DIK/N0489F290 N853 ARCKY T853 IBESA T860 ERUKI T856 DEPOK DEPOK2C |
| Aircraft | MD11/H-SDE1E2E3FGHIJ2J3J4J5M1RWXY/LB1D1 |
Departure
| Time | 2026-05-05 13:59 |
|---|---|
| Airport | Faro - Gago Coutinho International Airport (LPFR) |
Arrival
| Time | N/A |
|---|---|
| Airport | Cologne Bonn Airport (EDDK) |
| Time | Latitude | Longitude | Altitude | Speed | Heading |
|---|---|---|---|---|---|
| 2026-05-05 13:20 | 37.01721 | -7.96643 | 28 ft | 0 kts | 189° |
| 2026-05-05 13:46 | 37.01728 | -7.96641 | 28 ft | 2 kts | 186° |
| 2026-05-05 13:47 | 37.01745 | -7.96639 | 28 ft | 2 kts | 182° |
| 2026-05-05 13:47 | 37.01761 | -7.96638 | 28 ft | 2 kts | 186° |
| 2026-05-05 13:47 | 37.01777 | -7.96637 | 27 ft | 2 kts | 168° |
| 2026-05-05 13:47 | 37.01793 | -7.96642 | 27 ft | 2 kts | 152° |
| 2026-05-05 13:48 | 37.01805 | -7.96655 | 27 ft | 1 kts | 100° |
| 2026-05-05 13:51 | 37.01803 | -7.96644 | 27 ft | 4 kts | 99° |
| 2026-05-05 13:51 | 37.01793 | -7.96587 | 27 ft | 7 kts | 115° |
| 2026-05-05 13:51 | 37.01767 | -7.96547 | 27 ft | 5 kts | 146° |
| 2026-05-05 13:51 | 37.01740 | -7.96532 | 28 ft | 4 kts | 164° |
| 2026-05-05 13:52 | 37.01714 | -7.96531 | 28 ft | 7 kts | 181° |
| 2026-05-05 13:52 | 37.01702 | -7.96532 | 28 ft | 0 kts | 185° |
| 2026-05-05 13:55 | 37.01701 | -7.96532 | 28 ft | 2 kts | 185° |
| 2026-05-05 13:55 | 37.01648 | -7.96528 | 28 ft | 12 kts | 160° |
| 2026-05-05 13:55 | 37.01602 | -7.96436 | 28 ft | 14 kts | 101° |
| 2026-05-05 13:55 | 37.01582 | -7.96274 | 28 ft | 24 kts | 99° |
| 2026-05-05 13:56 | 37.01548 | -7.96043 | 27 ft | 28 kts | 100° |
| 2026-05-05 13:56 | 37.01490 | -7.95854 | 27 ft | 14 kts | 147° |
| 2026-05-05 13:56 | 37.01405 | -7.95849 | 28 ft | 12 kts | 191° |
| 2026-05-05 13:56 | 37.01371 | -7.95865 | 27 ft | 2 kts | 217° |
| 2026-05-05 13:57 | 37.01356 | -7.95897 | 28 ft | 7 kts | 249° |
| 2026-05-05 13:57 | 37.01357 | -7.95958 | 28 ft | 0 kts | 279° |
| 2026-05-05 13:57 | 37.01361 | -7.95987 | 28 ft | 6 kts | 279° |
| 2026-05-05 13:57 | 37.01364 | -7.96013 | 28 ft | 0 kts | 279° |
| 2026-05-05 13:58 | 37.01410 | -7.96327 | 29 ft | 90 kts | 279° |
| 2026-05-05 13:58 | 37.01581 | -7.97538 | 100 ft | 183 kts | 280° |
| 2026-05-05 13:58 | 37.01814 | -7.99219 | 469 ft | 201 kts | 279° |
| 2026-05-05 13:59 | 37.02192 | -8.02341 | 1950 ft | 173 kts | 279° |
| 2026-05-05 13:59 | 37.02397 | -8.03836 | 2629 ft | 175 kts | 280° |
| 2026-05-05 14:00 | 37.02841 | -8.06976 | 4076 ft | 201 kts | 280° |
| 2026-05-05 14:00 | 37.03094 | -8.08770 | 4801 ft | 217 kts | 280° |
| 2026-05-05 14:00 | 37.03329 | -8.10704 | 5512 ft | 231 kts | 271° |
| 2026-05-05 14:00 | 37.02884 | -8.12613 | 6196 ft | 234 kts | 234° |
| 2026-05-05 14:01 | 37.01576 | -8.13838 | 6928 ft | 242 kts | 200° |
| 2026-05-05 14:01 | 36.99897 | -8.14055 | 7632 ft | 248 kts | 171° |
| 2026-05-05 14:01 | 36.98242 | -8.13436 | 8350 ft | 250 kts | 160° |
| 2026-05-05 14:01 | 36.96662 | -8.12672 | 9172 ft | 245 kts | 159° |
| 2026-05-05 14:02 | 36.95063 | -8.11902 | 9865 ft | 247 kts | 160° |
| 2026-05-05 14:02 | 36.93457 | -8.11202 | 10567 ft | 248 kts | 163° |
| 2026-05-05 14:02 | 36.91787 | -8.10647 | 11267 ft | 248 kts | 168° |
| 2026-05-05 14:02 | 36.90091 | -8.10240 | 11960 ft | 248 kts | 171° |
| 2026-05-05 14:03 | 36.88385 | -8.09877 | 12534 ft | 254 kts | 165° |
| 2026-05-05 14:03 | 36.86820 | -8.08717 | 12646 ft | 276 kts | 133° |
| 2026-05-05 14:03 | 36.85829 | -8.06589 | 12795 ft | 295 kts | 107° |
| 2026-05-05 14:03 | 36.85486 | -8.03998 | 12952 ft | 311 kts | 95° |
| 2026-05-05 14:04 | 36.85342 | -8.01186 | 13075 ft | 340 kts | 93° |
| 2026-05-05 14:04 | 36.85172 | -7.98190 | 13794 ft | 349 kts | 95° |
| 2026-05-05 14:04 | 36.84940 | -7.95146 | 14709 ft | 354 kts | 96° |
| 2026-05-05 14:04 | 36.84651 | -7.92064 | 15588 ft | 359 kts | 97° |
| 2026-05-05 14:05 | 36.84320 | -7.88957 | 16434 ft | 364 kts | 98° |
| 2026-05-05 14:05 | 36.83964 | -7.85852 | 17237 ft | 368 kts | 98° |
| 2026-05-05 14:05 | 36.83585 | -7.82668 | 18038 ft | 373 kts | 98° |
| 2026-05-05 14:05 | 36.83193 | -7.79448 | 18811 ft | 377 kts | 98° |
| 2026-05-05 14:06 | 36.82792 | -7.76193 | 19558 ft | 382 kts | 99° |
| 2026-05-05 14:06 | 36.82383 | -7.72897 | 20273 ft | 386 kts | 99° |
| 2026-05-05 14:06 | 36.82125 | -7.69543 | 20885 ft | 390 kts | 86° |
| 2026-05-05 14:06 | 36.82668 | -7.66229 | 21550 ft | 393 kts | 69° |
| 2026-05-05 14:07 | 36.83992 | -7.63237 | 22168 ft | 397 kts | 51° |
| 2026-05-05 14:07 | 36.85973 | -7.60835 | 22744 ft | 400 kts | 36° |
| 2026-05-05 14:07 | 36.88308 | -7.58907 | 23272 ft | 404 kts | 32° |
| 2026-05-05 14:07 | 36.90682 | -7.56998 | 23832 ft | 408 kts | 34° |
| 2026-05-05 14:08 | 36.92997 | -7.54917 | 24375 ft | 411 kts | 37° |
| 2026-05-05 14:08 | 36.95234 | -7.52661 | 24913 ft | 415 kts | 40° |
| 2026-05-05 14:08 | 36.97416 | -7.50274 | 25448 ft | 418 kts | 42° |
| 2026-05-05 14:08 | 36.99567 | -7.47802 | 25971 ft | 422 kts | 43° |
| 2026-05-05 14:09 | 37.01713 | -7.45275 | 26491 ft | 425 kts | 43° |
| 2026-05-05 14:09 | 37.03861 | -7.42717 | 27078 ft | 426 kts | 43° |
| 2026-05-05 14:09 | 37.05976 | -7.40190 | 27718 ft | 425 kts | 43° |
| 2026-05-05 14:09 | 37.07923 | -7.37413 | 28315 ft | 424 kts | 56° |
| 2026-05-05 14:10 | 37.09367 | -7.34192 | 28906 ft | 423 kts | 65° |
| 2026-05-05 14:10 | 37.10530 | -7.30809 | 29490 ft | 422 kts | 68° |
| 2026-05-05 14:10 | 37.11601 | -7.27380 | 30054 ft | 421 kts | 69° |
| 2026-05-05 14:10 | 37.12663 | -7.23960 | 30593 ft | 420 kts | 68° |
| 2026-05-05 14:11 | 37.13744 | -7.20559 | 31125 ft | 420 kts | 68° |
| 2026-05-05 14:11 | 37.14833 | -7.17212 | 31605 ft | 420 kts | 68° |
| 2026-05-05 14:11 | 37.15952 | -7.13831 | 31971 ft | 419 kts | 67° |
| 2026-05-05 14:11 | 37.17063 | -7.10507 | 32335 ft | 418 kts | 67° |
| 2026-05-05 14:12 | 37.18193 | -7.07141 | 32706 ft | 419 kts | 67° |
| 2026-05-05 14:12 | 37.19314 | -7.03745 | 32904 ft | 426 kts | 69° |
| 2026-05-05 14:12 | 37.20244 | -7.00154 | 32932 ft | 437 kts | 74° |
| 2026-05-05 14:12 | 37.20999 | -6.96450 | 32939 ft | 439 kts | 77° |
| 2026-05-05 14:13 | 37.22341 | -6.88968 | 32940 ft | 440 kts | 77° |
| 2026-05-05 14:13 | 37.23676 | -6.81521 | 32940 ft | 440 kts | 77° |
| 2026-05-05 14:14 | 37.25049 | -6.74032 | 32940 ft | 440 kts | 77° |
| 2026-05-05 14:14 | 37.26431 | -6.66536 | 32940 ft | 440 kts | 77° |
| 2026-05-05 14:15 | 37.27808 | -6.59074 | 32939 ft | 440 kts | 77° |
| 2026-05-05 14:15 | 37.29473 | -6.51701 | 32938 ft | 439 kts | 64° |
| 2026-05-05 14:16 | 37.31104 | -6.48465 | 32939 ft | 438 kts | 49° |
| 2026-05-05 14:16 | 37.33304 | -6.45837 | 32940 ft | 438 kts | 35° |
| 2026-05-05 14:16 | 37.35952 | -6.43950 | 32941 ft | 437 kts | 22° |
| 2026-05-05 14:16 | 37.38798 | -6.42580 | 32940 ft | 439 kts | 20° |
| 2026-05-05 14:17 | 37.44427 | -6.39601 | 32940 ft | 439 kts | 26° |
| 2026-05-05 14:17 | 37.49777 | -6.35878 | 32940 ft | 439 kts | 31° |
| 2026-05-05 14:18 | 37.54948 | -6.31855 | 32940 ft | 440 kts | 32° |
| 2026-05-05 14:18 | 37.60126 | -6.27742 | 32940 ft | 440 kts | 32° |
| 2026-05-05 14:19 | 37.65317 | -6.23625 | 32940 ft | 440 kts | 32° |
| 2026-05-05 14:19 | 37.70508 | -6.19513 | 32941 ft | 440 kts | 32° |
| 2026-05-05 14:20 | 37.75705 | -6.15394 | 32942 ft | 441 kts | 32° |
| 2026-05-05 14:20 | 37.80870 | -6.11293 | 32940 ft | 441 kts | 32° |
| 2026-05-05 14:21 | 37.86062 | -6.07164 | 32942 ft | 441 kts | 32° |
| 2026-05-05 14:21 | 37.91265 | -6.03018 | 32939 ft | 441 kts | 32° |
| 2026-05-05 14:22 | 37.96462 | -5.98861 | 32939 ft | 442 kts | 32° |
| 2026-05-05 14:22 | 38.01653 | -5.94688 | 32940 ft | 441 kts | 32° |
| 2026-05-05 14:23 | 38.06841 | -5.90523 | 32940 ft | 441 kts | 32° |
| 2026-05-05 14:23 | 38.12033 | -5.86355 | 32940 ft | 442 kts | 32° |
| 2026-05-05 14:24 | 38.17221 | -5.82184 | 32940 ft | 442 kts | 32° |
| 2026-05-05 14:24 | 38.22415 | -5.78002 | 32940 ft | 442 kts | 32° |
| 2026-05-05 14:25 | 38.27615 | -5.73808 | 32939 ft | 442 kts | 32° |
| 2026-05-05 14:25 | 38.32813 | -5.69607 | 32940 ft | 442 kts | 32° |
| 2026-05-05 14:26 | 38.37976 | -5.65427 | 32941 ft | 442 kts | 32° |
| 2026-05-05 14:26 | 38.43174 | -5.61212 | 32941 ft | 442 kts | 32° |
| 2026-05-05 14:27 | 38.48362 | -5.56999 | 32941 ft | 442 kts | 32° |
| 2026-05-05 14:27 | 38.53548 | -5.52779 | 32940 ft | 442 kts | 32° |
| 2026-05-05 14:28 | 38.58738 | -5.48549 | 32940 ft | 443 kts | 32° |
| 2026-05-05 14:28 | 38.63939 | -5.44315 | 32939 ft | 442 kts | 32° |
| 2026-05-05 14:29 | 38.69140 | -5.40101 | 32938 ft | 442 kts | 32° |
| 2026-05-05 14:29 | 38.74336 | -5.35894 | 32941 ft | 442 kts | 32° |
| 2026-05-05 14:30 | 38.79517 | -5.31695 | 32941 ft | 442 kts | 32° |
| 2026-05-05 14:30 | 38.84711 | -5.27477 | 32940 ft | 442 kts | 32° |
| 2026-05-05 14:31 | 38.89869 | -5.23281 | 32941 ft | 441 kts | 32° |
| 2026-05-05 14:31 | 38.95053 | -5.19055 | 32940 ft | 441 kts | 32° |
| 2026-05-05 14:32 | 39.00231 | -5.14820 | 32939 ft | 441 kts | 32° |
| 2026-05-05 14:32 | 39.05396 | -5.10541 | 32940 ft | 441 kts | 32° |
| 2026-05-05 14:33 | 39.10555 | -5.06253 | 32940 ft | 442 kts | 32° |
| 2026-05-05 14:33 | 39.15717 | -5.01962 | 32941 ft | 442 kts | 32° |
| 2026-05-05 14:34 | 39.20882 | -4.97665 | 32939 ft | 442 kts | 32° |
| 2026-05-05 14:34 | 39.26012 | -4.93390 | 32940 ft | 442 kts | 32° |
| 2026-05-05 14:35 | 39.31190 | -4.89067 | 32941 ft | 442 kts | 33° |
| 2026-05-05 14:35 | 39.36349 | -4.84752 | 32939 ft | 442 kts | 33° |
| 2026-05-05 14:36 | 39.41504 | -4.80433 | 32940 ft | 442 kts | 33° |
| 2026-05-05 14:36 | 39.46665 | -4.76100 | 32940 ft | 442 kts | 33° |
| 2026-05-05 14:37 | 39.51827 | -4.71759 | 32939 ft | 443 kts | 33° |
| 2026-05-05 14:37 | 39.57006 | -4.67397 | 32939 ft | 444 kts | 33° |
| 2026-05-05 14:38 | 39.62149 | -4.63056 | 32939 ft | 444 kts | 33° |
| 2026-05-05 14:38 | 39.67330 | -4.58676 | 32940 ft | 444 kts | 33° |
| 2026-05-05 14:39 | 39.71659 | -4.54998 | 32941 ft | 443 kts | 33° |
| 2026-05-05 14:39 | 39.76807 | -4.50605 | 32941 ft | 442 kts | 33° |
| 2026-05-05 14:40 | 39.81960 | -4.46217 | 32939 ft | 442 kts | 33° |
| 2026-05-05 14:40 | 39.87066 | -4.41868 | 32939 ft | 441 kts | 33° |
| 2026-05-05 14:41 | 39.92206 | -4.37484 | 32939 ft | 442 kts | 33° |
| 2026-05-05 14:41 | 39.97549 | -4.33541 | 32940 ft | 442 kts | 26° |
| 2026-05-05 14:42 | 40.03123 | -4.30152 | 32924 ft | 442 kts | 24° |
| 2026-05-05 14:42 | 40.08716 | -4.26810 | 32935 ft | 442 kts | 24° |
| 2026-05-05 14:43 | 40.14298 | -4.23421 | 32940 ft | 442 kts | 25° |
| 2026-05-05 14:43 | 40.19870 | -4.20005 | 32939 ft | 442 kts | 25° |
| 2026-05-05 14:44 | 40.25405 | -4.16601 | 32940 ft | 442 kts | 25° |
| 2026-05-05 14:44 | 40.30974 | -4.13170 | 32940 ft | 442 kts | 25° |
| 2026-05-05 14:45 | 40.36523 | -4.09747 | 32940 ft | 442 kts | 25° |
| 2026-05-05 14:45 | 40.42085 | -4.06292 | 32948 ft | 442 kts | 25° |
| 2026-05-05 14:46 | 40.47654 | -4.02848 | 32941 ft | 442 kts | 25° |
| 2026-05-05 14:46 | 40.53231 | -3.99397 | 32940 ft | 443 kts | 25° |
| 2026-05-05 14:47 | 40.58774 | -3.95955 | 32941 ft | 444 kts | 25° |
| 2026-05-05 14:47 | 40.64367 | -3.92473 | 32941 ft | 445 kts | 25° |
| 2026-05-05 14:48 | 40.69969 | -3.88974 | 32941 ft | 445 kts | 25° |
| 2026-05-05 14:48 | 40.75562 | -3.85457 | 32940 ft | 445 kts | 25° |
| 2026-05-05 14:49 | 40.81173 | -3.81933 | 32942 ft | 447 kts | 25° |
| 2026-05-05 14:49 | 40.86770 | -3.78419 | 32940 ft | 449 kts | 25° |
| 2026-05-05 14:50 | 40.92397 | -3.74882 | 32940 ft | 446 kts | 25° |
| 2026-05-05 14:50 | 40.98000 | -3.71354 | 32940 ft | 446 kts | 25° |
| 2026-05-05 14:51 | 41.03601 | -3.67820 | 32941 ft | 446 kts | 25° |
| 2026-05-05 14:51 | 41.09215 | -3.64271 | 32941 ft | 447 kts | 25° |
| 2026-05-05 14:52 | 41.14848 | -3.60729 | 32939 ft | 448 kts | 24° |
| 2026-05-05 14:52 | 41.20559 | -3.57489 | 32939 ft | 445 kts | 22° |
| 2026-05-05 14:53 | 41.26275 | -3.54399 | 32939 ft | 445 kts | 22° |
| 2026-05-05 14:53 | 41.32017 | -3.51287 | 32940 ft | 445 kts | 22° |
| 2026-05-05 14:54 | 41.37529 | -3.48277 | 32940 ft | 445 kts | 22° |
| 2026-05-05 14:54 | 41.43257 | -3.45138 | 32940 ft | 445 kts | 22° |
| 2026-05-05 14:55 | 41.48969 | -3.42000 | 32940 ft | 445 kts | 22° |
| 2026-05-05 14:55 | 41.54686 | -3.38839 | 32940 ft | 444 kts | 22° |
| 2026-05-05 14:56 | 41.60395 | -3.35672 | 32940 ft | 444 kts | 22° |
| 2026-05-05 14:56 | 41.66070 | -3.32523 | 32940 ft | 444 kts | 22° |
| 2026-05-05 14:57 | 41.71784 | -3.29348 | 32941 ft | 444 kts | 22° |
| 2026-05-05 14:57 | 41.77498 | -3.26167 | 32939 ft | 444 kts | 22° |
| 2026-05-05 14:58 | 41.83210 | -3.22981 | 32940 ft | 445 kts | 22° |
| 2026-05-05 14:58 | 41.88929 | -3.19785 | 32940 ft | 445 kts | 22° |
| 2026-05-05 14:59 | 41.94626 | -3.16596 | 32940 ft | 445 kts | 22° |
| 2026-05-05 14:59 | 42.00351 | -3.13384 | 32940 ft | 445 kts | 22° |
| 2026-05-05 15:00 | 42.05101 | -3.10714 | 32939 ft | 447 kts | 22° |
| 2026-05-05 15:00 | 42.11819 | -3.06931 | 32940 ft | 447 kts | 22° |
| 2026-05-05 15:01 | 42.17556 | -3.03693 | 32940 ft | 447 kts | 22° |
| 2026-05-05 15:01 | 42.23306 | -3.00442 | 32942 ft | 448 kts | 22° |
| 2026-05-05 15:02 | 42.29006 | -2.97204 | 32938 ft | 447 kts | 22° |
| 2026-05-05 15:02 | 42.34739 | -2.93930 | 32940 ft | 446 kts | 22° |
| 2026-05-05 15:03 | 42.40456 | -2.90671 | 32940 ft | 444 kts | 22° |
| 2026-05-05 15:03 | 42.46072 | -2.87233 | 32940 ft | 443 kts | 32° |
| 2026-05-05 15:04 | 42.50896 | -2.82069 | 32940 ft | 442 kts | 42° |
| 2026-05-05 15:04 | 42.55394 | -2.76379 | 32940 ft | 442 kts | 43° |
| 2026-05-05 15:05 | 42.62189 | -2.67954 | 32939 ft | 445 kts | 41° |
| 2026-05-05 15:06 | 42.66793 | -2.62354 | 32941 ft | 444 kts | 41° |
| 2026-05-05 15:06 | 42.71402 | -2.56753 | 32940 ft | 443 kts | 41° |
| 2026-05-05 15:07 | 42.76006 | -2.51145 | 32941 ft | 445 kts | 41° |
| 2026-05-05 15:07 | 42.80614 | -2.45518 | 32940 ft | 444 kts | 41° |
| 2026-05-05 15:08 | 42.85206 | -2.39898 | 32939 ft | 443 kts | 41° |
| 2026-05-05 15:08 | 42.89784 | -2.34282 | 32941 ft | 443 kts | 41° |
| 2026-05-05 15:09 | 42.94343 | -2.28679 | 32941 ft | 445 kts | 42° |
| 2026-05-05 15:09 | 42.98926 | -2.23027 | 32941 ft | 442 kts | 42° |
| 2026-05-05 15:10 | 43.03483 | -2.17375 | 32940 ft | 441 kts | 42° |
| 2026-05-05 15:10 | 43.08027 | -2.11751 | 32941 ft | 441 kts | 42° |
| 2026-05-05 15:11 | 43.12577 | -2.06108 | 32940 ft | 440 kts | 42° |
| 2026-05-05 15:11 | 43.17087 | -2.00499 | 32940 ft | 442 kts | 42° |
| 2026-05-05 15:12 | 43.21622 | -1.94851 | 32940 ft | 443 kts | 42° |
| 2026-05-05 15:12 | 43.26161 | -1.89188 | 32941 ft | 440 kts | 42° |
| 2026-05-05 15:13 | 43.30713 | -1.83634 | 32939 ft | 439 kts | 37° |
| 2026-05-05 15:13 | 43.35848 | -1.79099 | 32940 ft | 439 kts | 29° |
| 2026-05-05 15:14 | 43.41158 | -1.74940 | 32941 ft | 438 kts | 31° |
| 2026-05-05 15:14 | 43.46311 | -1.70436 | 32941 ft | 439 kts | 33° |
| 2026-05-05 15:15 | 43.51385 | -1.65805 | 32940 ft | 439 kts | 33° |
| 2026-05-05 15:15 | 43.56470 | -1.61148 | 32940 ft | 439 kts | 33° |
| 2026-05-05 15:16 | 43.61524 | -1.56526 | 32941 ft | 439 kts | 33° |
| 2026-05-05 15:16 | 43.66609 | -1.51872 | 32941 ft | 439 kts | 33° |
| 2026-05-05 15:17 | 43.71696 | -1.47208 | 32940 ft | 439 kts | 33° |
| 2026-05-05 15:17 | 43.76790 | -1.42529 | 32940 ft | 439 kts | 33° |
| 2026-05-05 15:18 | 43.81867 | -1.37854 | 32940 ft | 439 kts | 33° |
| 2026-05-05 15:18 | 43.86791 | -1.33311 | 32937 ft | 429 kts | 33° |
| 2026-05-05 15:19 | 43.91678 | -1.28793 | 32939 ft | 421 kts | 33° |
| 2026-05-05 15:19 | 43.96547 | -1.24283 | 32939 ft | 420 kts | 33° |
| 2026-05-05 15:20 | 44.01408 | -1.19770 | 32940 ft | 420 kts | 33° |
| 2026-05-05 15:20 | 44.06273 | -1.15246 | 32941 ft | 420 kts | 33° |
| 2026-05-05 15:21 | 44.11104 | -1.10731 | 32941 ft | 420 kts | 34° |
| 2026-05-05 15:21 | 44.15950 | -1.06173 | 32940 ft | 420 kts | 34° |
| 2026-05-05 15:22 | 44.20810 | -1.01612 | 32940 ft | 420 kts | 33° |
| 2026-05-05 15:22 | 44.25665 | -0.97058 | 32940 ft | 420 kts | 33° |
| 2026-05-05 15:23 | 44.30517 | -0.92499 | 32940 ft | 420 kts | 34° |
| 2026-05-05 15:23 | 44.35366 | -0.87935 | 32940 ft | 420 kts | 34° |
| 2026-05-05 15:24 | 44.40455 | -0.83935 | 32940 ft | 420 kts | 24° |
| 2026-05-05 15:24 | 44.45812 | -0.80665 | 32940 ft | 420 kts | 22° |
| 2026-05-05 15:25 | 44.51156 | -0.77475 | 32940 ft | 420 kts | 23° |
| 2026-05-05 15:25 | 44.56518 | -0.74217 | 32941 ft | 420 kts | 23° |
| 2026-05-05 15:26 | 44.61871 | -0.70927 | 32941 ft | 420 kts | 23° |
| 2026-05-05 15:26 | 44.67224 | -0.67624 | 32940 ft | 420 kts | 23° |
| 2026-05-05 15:27 | 44.71681 | -0.64869 | 32940 ft | 420 kts | 23° |
| 2026-05-05 15:27 | 44.77034 | -0.61554 | 32940 ft | 420 kts | 23° |
| 2026-05-05 15:28 | 44.82380 | -0.58238 | 32940 ft | 420 kts | 24° |
| 2026-05-05 15:28 | 44.87724 | -0.54915 | 32940 ft | 420 kts | 24° |
| 2026-05-05 15:29 | 44.93075 | -0.51582 | 32940 ft | 420 kts | 24° |
| 2026-05-05 15:29 | 44.98392 | -0.48263 | 32940 ft | 420 kts | 24° |
| 2026-05-05 15:30 | 45.03718 | -0.44931 | 32940 ft | 420 kts | 24° |
| 2026-05-05 15:30 | 45.09034 | -0.41599 | 32940 ft | 420 kts | 24° |
| 2026-05-05 15:31 | 45.14375 | -0.38239 | 32941 ft | 420 kts | 24° |
| 2026-05-05 15:31 | 45.19680 | -0.34876 | 32939 ft | 420 kts | 24° |
| 2026-05-05 15:32 | 45.25022 | -0.31474 | 32939 ft | 420 kts | 24° |
| 2026-05-05 15:32 | 45.30365 | -0.28105 | 32940 ft | 420 kts | 24° |
| 2026-05-05 15:32 | 45.33045 | -0.26413 | 32833 ft | 422 kts | 24° |
| 2026-05-05 15:33 | 45.35712 | -0.24667 | 32487 ft | 421 kts | 25° |
| 2026-05-05 15:33 | 45.38299 | -0.22834 | 32163 ft | 420 kts | 26° |
| 2026-05-05 15:33 | 45.40921 | -0.21079 | 32526 ft | 417 kts | 23° |
| 2026-05-05 15:34 | 45.43563 | -0.19472 | 32847 ft | 421 kts | 22° |
| 2026-05-05 15:34 | 45.48968 | -0.16216 | 32934 ft | 420 kts | 23° |
| 2026-05-05 15:35 | 45.54332 | -0.12873 | 32941 ft | 420 kts | 24° |
| 2026-05-05 15:35 | 45.59676 | -0.09472 | 32940 ft | 420 kts | 24° |
| 2026-05-05 15:36 | 45.65015 | -0.06050 | 32941 ft | 420 kts | 24° |
| 2026-05-05 15:36 | 45.70349 | -0.02624 | 32939 ft | 420 kts | 24° |
| 2026-05-05 15:37 | 45.75663 | 0.00795 | 32941 ft | 420 kts | 24° |
| 2026-05-05 15:37 | 45.80997 | 0.04233 | 32939 ft | 420 kts | 24° |
| 2026-05-05 15:38 | 45.86331 | 0.07679 | 32940 ft | 420 kts | 24° |
| 2026-05-05 15:38 | 45.91663 | 0.11143 | 32940 ft | 420 kts | 24° |
| 2026-05-05 15:39 | 45.96986 | 0.14619 | 32939 ft | 420 kts | 24° |
| 2026-05-05 15:39 | 46.02286 | 0.18073 | 32940 ft | 421 kts | 24° |
| 2026-05-05 15:40 | 46.07629 | 0.21556 | 32940 ft | 420 kts | 24° |
| 2026-05-05 15:40 | 46.12926 | 0.25014 | 32940 ft | 420 kts | 24° |
| 2026-05-05 15:41 | 46.18258 | 0.28503 | 32941 ft | 420 kts | 24° |
| 2026-05-05 15:41 | 46.23591 | 0.31999 | 32939 ft | 421 kts | 24° |
| 2026-05-05 15:42 | 46.28918 | 0.35499 | 32939 ft | 421 kts | 24° |
| 2026-05-05 15:42 | 46.34248 | 0.39009 | 32941 ft | 421 kts | 24° |
| 2026-05-05 15:43 | 46.39574 | 0.42523 | 32939 ft | 420 kts | 24° |
| 2026-05-05 15:43 | 46.44903 | 0.46048 | 32940 ft | 420 kts | 24° |
| 2026-05-05 15:44 | 46.50226 | 0.49576 | 32939 ft | 420 kts | 24° |
| 2026-05-05 15:44 | 46.55562 | 0.52799 | 32940 ft | 420 kts | 17° |
| 2026-05-05 15:45 | 46.61212 | 0.54861 | 32940 ft | 420 kts | 12° |
| 2026-05-05 15:45 | 46.66932 | 0.56653 | 32939 ft | 420 kts | 12° |
| 2026-05-05 15:46 | 46.72641 | 0.58486 | 32939 ft | 420 kts | 12° |
| 2026-05-05 15:46 | 46.78304 | 0.60353 | 32939 ft | 420 kts | 12° |
| 2026-05-05 15:47 | 46.84012 | 0.62252 | 32941 ft | 420 kts | 12° |
| 2026-05-05 15:47 | 46.89720 | 0.64158 | 32939 ft | 420 kts | 12° |
| 2026-05-05 15:48 | 46.95424 | 0.66065 | 32941 ft | 420 kts | 12° |
| 2026-05-05 15:48 | 47.01087 | 0.67963 | 32940 ft | 420 kts | 12° |
| 2026-05-05 15:49 | 47.06634 | 0.70558 | 32940 ft | 420 kts | 27° |
| 2026-05-05 15:49 | 47.11674 | 0.74928 | 32940 ft | 421 kts | 32° |
| 2026-05-05 15:50 | 47.16606 | 0.79553 | 32940 ft | 421 kts | 32° |
| 2026-05-05 15:50 | 47.21546 | 0.84084 | 32940 ft | 420 kts | 31° |
| 2026-05-05 15:51 | 47.26533 | 0.88592 | 32940 ft | 420 kts | 31° |
| 2026-05-05 15:51 | 47.31528 | 0.93096 | 32941 ft | 420 kts | 31° |
| 2026-05-05 15:52 | 47.36516 | 0.97603 | 32940 ft | 420 kts | 31° |
| 2026-05-05 15:52 | 47.41502 | 1.02120 | 32940 ft | 420 kts | 31° |
| 2026-05-05 15:53 | 47.46464 | 1.06618 | 32939 ft | 420 kts | 31° |
| 2026-05-05 15:53 | 47.51602 | 1.10870 | 32939 ft | 420 kts | 28° |
| 2026-05-05 15:54 | 47.56737 | 1.14880 | 32941 ft | 420 kts | 27° |
| 2026-05-05 15:54 | 47.61918 | 1.18922 | 32941 ft | 421 kts | 27° |
| 2026-05-05 15:55 | 47.67089 | 1.22983 | 32940 ft | 421 kts | 27° |
| 2026-05-05 15:55 | 47.72258 | 1.27060 | 32939 ft | 421 kts | 28° |
| 2026-05-05 15:56 | 47.77423 | 1.31145 | 32940 ft | 421 kts | 28° |
| 2026-05-05 15:56 | 47.82588 | 1.35238 | 32940 ft | 421 kts | 28° |
| 2026-05-05 15:57 | 47.87755 | 1.39342 | 32940 ft | 421 kts | 28° |
| 2026-05-05 15:57 | 47.92931 | 1.43464 | 32941 ft | 421 kts | 28° |
| 2026-05-05 15:58 | 47.98067 | 1.47562 | 32940 ft | 421 kts | 28° |
| 2026-05-05 15:58 | 48.03231 | 1.51693 | 32940 ft | 421 kts | 28° |
| 2026-05-05 15:59 | 48.08392 | 1.55830 | 32940 ft | 421 kts | 28° |
| 2026-05-05 15:59 | 48.13553 | 1.59977 | 32941 ft | 421 kts | 28° |
| 2026-05-05 16:00 | 48.18692 | 1.64116 | 32940 ft | 421 kts | 28° |
| 2026-05-05 16:00 | 48.23839 | 1.68295 | 32941 ft | 421 kts | 28° |
| 2026-05-05 16:01 | 48.28988 | 1.72488 | 32939 ft | 421 kts | 28° |
| 2026-05-05 16:01 | 48.34139 | 1.76674 | 32940 ft | 421 kts | 28° |
| 2026-05-05 16:02 | 48.39289 | 1.80861 | 32940 ft | 421 kts | 28° |
| 2026-05-05 16:02 | 48.44443 | 1.85060 | 32941 ft | 421 kts | 28° |
| 2026-05-05 16:03 | 48.49556 | 1.89235 | 32940 ft | 421 kts | 28° |
| 2026-05-05 16:03 | 48.54704 | 1.93448 | 32940 ft | 421 kts | 28° |
| 2026-05-05 16:04 | 48.59849 | 1.97670 | 32939 ft | 421 kts | 28° |
| 2026-05-05 16:04 | 48.64990 | 2.01897 | 32939 ft | 421 kts | 28° |
| 2026-05-05 16:05 | 48.70130 | 2.06134 | 32939 ft | 421 kts | 28° |
| 2026-05-05 16:05 | 48.75189 | 2.10601 | 32938 ft | 421 kts | 39° |
| 2026-05-05 16:05 | 48.77228 | 2.13765 | 32939 ft | 420 kts | 54° |
| 2026-05-05 16:06 | 48.78652 | 2.17622 | 32939 ft | 420 kts | 69° |
| 2026-05-05 16:06 | 48.79373 | 2.21897 | 32941 ft | 420 kts | 83° |
| 2026-05-05 16:06 | 48.79647 | 2.26321 | 32941 ft | 421 kts | 85° |
| 2026-05-05 16:07 | 48.80332 | 2.35146 | 32941 ft | 421 kts | 80° |
| 2026-05-05 16:07 | 48.81566 | 2.43836 | 32939 ft | 421 kts | 76° |
| 2026-05-05 16:08 | 48.83036 | 2.52379 | 32940 ft | 421 kts | 75° |
| 2026-05-05 16:08 | 48.84564 | 2.60971 | 32938 ft | 421 kts | 75° |
| 2026-05-05 16:09 | 48.86085 | 2.69579 | 32939 ft | 421 kts | 75° |
| 2026-05-05 16:09 | 48.87592 | 2.78181 | 32941 ft | 421 kts | 75° |
| 2026-05-05 16:10 | 48.89092 | 2.86796 | 32940 ft | 421 kts | 75° |
| 2026-05-05 16:10 | 48.90586 | 2.95416 | 32941 ft | 422 kts | 75° |
| 2026-05-05 16:11 | 48.92073 | 3.04042 | 32941 ft | 422 kts | 75° |
| 2026-05-05 16:12 | 48.95019 | 3.21261 | 32941 ft | 422 kts | 75° |
| 2026-05-05 16:13 | 48.98626 | 3.42889 | 32940 ft | 422 kts | 76° |
| 2026-05-05 16:13 | 49.00059 | 3.51561 | 32939 ft | 422 kts | 76° |
| 2026-05-05 16:14 | 49.02697 | 3.67431 | 32939 ft | 422 kts | 76° |
| 2026-05-05 16:15 | 49.05788 | 3.86179 | 32941 ft | 422 kts | 76° |
| 2026-05-05 16:16 | 49.08382 | 4.02083 | 32939 ft | 422 kts | 76° |
| 2026-05-05 16:17 | 49.10493 | 4.15131 | 32940 ft | 422 kts | 76° |
| 2026-05-05 16:18 | 49.12588 | 4.28185 | 32941 ft | 422 kts | 76° |
| 2026-05-05 16:19 | 49.15243 | 4.40972 | 32940 ft | 421 kts | 68° |
| 2026-05-05 16:19 | 49.18629 | 4.53316 | 32940 ft | 422 kts | 67° |
| 2026-05-05 16:20 | 49.23124 | 4.69902 | 32940 ft | 422 kts | 68° |
| 2026-05-05 16:22 | 49.28671 | 4.90691 | 32940 ft | 422 kts | 68° |
| 2026-05-05 16:23 | 49.33070 | 5.07308 | 32941 ft | 422 kts | 68° |
| 2026-05-05 16:23 | 49.36366 | 5.19834 | 32940 ft | 422 kts | 68° |
| 2026-05-05 16:24 | 49.38518 | 5.28054 | 32935 ft | 396 kts | 68° |
| 2026-05-05 16:24 | 49.40456 | 5.35484 | 32932 ft | 356 kts | 68° |
| 2026-05-05 16:25 | 49.41362 | 5.38966 | 32934 ft | 348 kts | 68° |
| 2026-05-05 16:25 | 49.44038 | 5.49277 | 32940 ft | 346 kts | 68° |
| 2026-05-05 16:26 | 49.47532 | 5.63054 | 32940 ft | 346 kts | 68° |
| 2026-05-05 16:27 | 49.49294 | 5.69956 | 32940 ft | 346 kts | 68° |
| 2026-05-05 16:27 | 49.51100 | 5.76767 | 32931 ft | 346 kts | 60° |
| 2026-05-05 16:28 | 49.52584 | 5.79632 | 32936 ft | 343 kts | 40° |
| 2026-05-05 16:28 | 49.54514 | 5.81798 | 32944 ft | 344 kts | 32° |
| 2026-05-05 16:28 | 49.58633 | 5.85602 | 32938 ft | 345 kts | 31° |
| 2026-05-05 16:29 | 49.62729 | 5.89475 | 32940 ft | 345 kts | 32° |
| 2026-05-05 16:29 | 49.66788 | 5.93468 | 32941 ft | 345 kts | 32° |
| 2026-05-05 16:30 | 49.70784 | 5.97466 | 32941 ft | 345 kts | 33° |
| 2026-05-05 16:30 | 49.74816 | 6.01528 | 32940 ft | 345 kts | 33° |
| 2026-05-05 16:31 | 49.78850 | 6.05603 | 32940 ft | 345 kts | 33° |
| 2026-05-05 16:31 | 49.82870 | 6.09675 | 32940 ft | 345 kts | 33° |
| 2026-05-05 16:32 | 49.87098 | 6.13070 | 32932 ft | 342 kts | 10° |
| 2026-05-05 16:32 | 49.91828 | 6.13368 | 32942 ft | 344 kts | 358° |
| 2026-05-05 16:33 | 49.96632 | 6.13158 | 32940 ft | 345 kts | 358° |
| 2026-05-05 16:33 | 50.01434 | 6.13067 | 32940 ft | 345 kts | 359° |
| 2026-05-05 16:34 | 50.06232 | 6.13055 | 32941 ft | 344 kts | 360° |
| 2026-05-05 16:34 | 50.10999 | 6.13072 | 32939 ft | 345 kts | 360° |
| 2026-05-05 16:35 | 50.15794 | 6.13096 | 32940 ft | 345 kts | 360° |
| 2026-05-05 16:35 | 50.17610 | 6.13106 | 32941 ft | 345 kts | 360° |